Time;durP1;ratioP1;P1;durP2;ratioP2;P2;SDS_P1;SDS_P2;PMS_P1;PMS_P2;Temp;Humidity;BMP_temperature;BMP_pressure;BME280_temperature;BME280_humidity;BME280_pressure;Samples;Min_cycle;Max_cycle;Signal;HPM_P1;HPM_P2
2020/12/19 00:03:32;;;;;;;40.77;16.80;;;3.20;99.90;;;;;;20982786;28;20398;-76
2020/12/19 00:13:33;;;;;;;42.63;16.90;;;3.10;99.90;;;;;;20970806;28;20354;-75
2020/12/19 00:23:34;;;;;;;39.37;17.13;;;3.00;99.90;;;;;;20987558;28;20064;-76
2020/12/19 00:33:35;;;;;;;43.13;16.42;;;3.10;99.90;;;;;;20968812;28;20467;-76
2020/12/19 00:43:36;;;;;;;35.53;15.17;;;3.00;99.90;;;;;;20996385;28;20025;-76
2020/12/19 00:53:37;;;;;;;51.17;16.35;;;3.00;99.90;;;;;;20983816;28;20046;-76
2020/12/19 01:03:38;;;;;;;33.27;13.70;;;3.00;99.90;;;;;;20996476;28;20431;-76
2020/12/19 01:13:39;;;;;;;33.33;13.93;;;2.90;99.90;;;;;;20995304;28;20039;-76
2020/12/19 01:23:40;;;;;;;52.40;14.10;;;2.80;99.90;;;;;;20996754;28;20266;-76
2020/12/19 01:33:41;;;;;;;27.17;12.52;;;2.70;99.90;;;;;;20980239;28;20024;-76
2020/12/19 01:43:42;;;;;;;177.18;17.17;;;2.70;99.90;;;;;;20996945;28;20553;-76
2020/12/19 01:53:43;;;;;;;125.43;14.97;;;2.60;99.90;;;;;;20972618;28;658198;-75
2020/12/19 02:03:44;;;;;;;73.35;14.02;;;2.60;99.90;;;;;;20982301;28;20035;-76
2020/12/19 02:13:44;;;;;;;163.70;16.92;;;2.60;99.90;;;;;;20981484;28;20033;-76
2020/12/19 02:23:46;;;;;;;227.80;18.88;;;2.40;99.90;;;;;;20980735;28;20024;-76
2020/12/19 02:33:47;;;;;;;164.30;15.07;;;2.40;99.90;;;;;;20997496;28;20059;-76
2020/12/19 02:43:54;;;;;;;;;;;2.20;99.90;;;;;;20979405;28;20372;-76
2020/12/19 02:53:55;;;;;;;124.47;14.90;;;2.30;99.90;;;;;;20977990;28;19962;-76
2020/12/19 03:03:56;;;;;;;;;;;2.30;99.90;;;;;;20995212;28;20402;-76
2020/12/19 03:13:57;;;;;;;145.35;14.43;;;2.30;99.90;;;;;;20994343;28;19923;-76
2020/12/19 03:23:58;;;;;;;;;;;2.30;99.90;;;;;;20993954;28;20029;-76
2020/12/19 03:33:58;;;;;;;166.37;15.83;;;2.10;99.90;;;;;;20992851;28;19916;-76
2020/12/19 03:43:59;;;;;;;95.47;12.32;;;2.10;99.90;;;;;;20991737;28;20286;-76
2020/12/19 03:54:00;;;;;;;;;;;2.00;99.90;;;;;;21010141;22;20072;-80
2020/12/19 04:04:01;;;;;;;39.00;9.80;;;1.90;99.90;;;;;;21012217;28;19943;-81
2020/12/19 04:14:02;;;;;;;;;;;1.90;99.90;;;;;;21012221;28;20051;-85
2020/12/19 04:24:03;;;;;;;80.05;10.90;;;1.80;99.90;;;;;;21013223;28;19916;-82
2020/12/19 04:34:03;;;;;;;43.47;10.48;;;1.80;99.90;;;;;;21014143;28;20040;-82
2020/12/19 04:44:05;;;;;;;138.30;12.95;;;1.90;99.90;;;;;;21016763;28;20479;-82
2020/12/19 04:54:07;;;;;;;59.60;10.20;;;1.80;99.90;;;;;;21032361;28;20037;-83
2020/12/19 05:04:13;;;;;;;48.63;10.02;;;1.70;99.90;;;;;;21034586;28;20032;-84
2020/12/19 05:14:13;;;;;;;28.38;10.88;;;1.60;99.90;;;;;;21018638;28;20080;-84
2020/12/19 05:24:15;;;;;;;;;;;1.70;99.90;;;;;;21000637;28;20036;-84
2020/12/19 05:34:16;;;;;;;175.73;13.48;;;1.70;99.90;;;;;;21034176;28;19912;-84
2020/12/19 05:44:20;;;;;;;;;;;1.70;99.90;;;;;;21040957;28;20020;-83
2020/12/19 05:54:23;;;;;;;105.20;11.80;;;1.50;99.90;;;;;;21016356;28;19924;-81
2020/12/19 06:04:25;;;;;;;163.57;17.83;;;1.50;99.90;;;;;;21033380;28;20155;-82
2020/12/19 06:14:34;;;;;;;89.25;11.75;;;1.40;99.90;;;;;;21000948;28;20032;-81
2020/12/19 06:24:48;;;;;;;159.82;16.77;;;1.30;99.90;;;;;;21033172;28;20033;-84
2020/12/19 06:35:09;;;;;;;94.70;11.65;;;1.20;99.90;;;;;;21031412;28;20039;-81
2020/12/19 06:45:30;;;;;;;128.47;11.10;;;1.30;99.90;;;;;;21002798;28;20375;-82
2020/12/19 06:55:30;;;;;;;54.83;10.77;;;1.10;99.90;;;;;;21017581;28;20036;-83
2020/12/19 07:05:33;;;;;;;26.52;9.70;;;1.00;99.90;;;;;;20998963;28;20041;-84
2020/12/19 07:15:42;;;;;;;51.03;11.15;;;1.10;99.90;;;;;;21014413;28;20036;-81
2020/12/19 07:25:43;;;;;;;50.55;11.13;;;0.90;99.90;;;;;;21028376;28;20040;-81
2020/12/19 07:35:44;;;;;;;24.25;10.50;;;0.90;99.90;;;;;;21010929;28;20033;-80
2020/12/19 07:45:45;;;;;;;23.02;10.27;;;0.90;99.90;;;;;;21004763;28;20025;-76
2020/12/19 07:55:50;;;;;;;36.08;9.55;;;2.00;99.90;;;;;;21003668;28;20035;-84
2020/12/19 08:05:54;;;;;;;69.13;10.55;;;1.50;99.90;;;;;;21004171;28;20119;-85
2020/12/19 08:15:58;;;;;;;35.00;11.93;;;1.40;99.90;;;;;;20986148;28;20462;-84
2020/12/19 08:25:59;;;;;;;108.88;12.57;;;1.20;99.90;;;;;;21001850;28;20379;-82
2020/12/19 08:36:00;;;;;;;71.57;10.70;;;1.10;99.90;;;;;;21000644;28;20036;-83
2020/12/19 08:46:12;;;;;;;47.10;10.68;;;1.10;99.90;;;;;;21003329;28;20541;-82
2020/12/19 08:56:18;;;;;;;156.15;14.85;;;1.10;99.90;;;;;;21008032;28;20036;-85
2020/12/19 09:06:19;;;;;;;33.88;12.52;;;1.20;99.90;;;;;;21024568;28;20036;-84
2020/12/19 09:16:20;;;;;;;87.60;12.20;;;1.20;99.90;;;;;;21025572;28;20035;-83
2020/12/19 09:26:20;;;;;;;52.00;12.25;;;1.20;99.90;;;;;;21024834;28;20040;-84
2020/12/19 09:36:21;;;;;;;54.10;13.18;;;1.30;99.90;;;;;;21008021;28;20561;-81
2020/12/19 09:46:22;;;;;;;36.88;11.55;;;1.30;99.90;;;;;;20999507;28;20095;-83
2020/12/19 09:56:23;;;;;;;;;;;1.30;99.90;;;;;;20972067;22;20059;-75
2020/12/19 10:06:23;;;;;;;36.27;13.27;;;1.40;99.90;;;;;;20920647;28;19995;-75
2020/12/19 10:16:24;;;;;;;;;;;1.70;99.90;;;;;;20871293;28;20280;-74
2020/12/19 10:26:25;;;;;;;36.83;15.07;;;1.90;99.90;;;;;;20870249;28;19947;-75
2020/12/19 10:36:26;;;;;;;24.73;10.52;;;2.20;99.90;;;;;;20855664;28;20369;-74
2020/12/19 10:46:28;;;;;;;;;;;1.90;99.90;;;;;;20912916;28;20043;-74
2020/12/19 10:56:29;;;;;;;31.87;15.50;;;1.70;99.90;;;;;;20884463;28;20326;-76
2020/12/19 11:06:30;;;;;;;;;;;1.80;99.90;;;;;;20829699;28;20048;-75
2020/12/19 11:16:31;;;;;;;32.95;15.35;;;1.80;99.90;;;;;;20822076;28;19912;-76
2020/12/19 11:26:32;;;;;;;33.92;14.82;;;1.90;99.90;;;;;;20862956;28;20488;-73
2020/12/19 11:36:39;;;;;;;;;;;2.60;99.90;;;;;;20874726;28;20478;-74
2020/12/19 11:46:40;;;;;;;26.17;12.40;;;2.60;99.90;;;;;;20907197;28;20015;-76
2020/12/19 11:56:41;;;;;;;41.22;16.75;;;2.40;99.90;;;;;;20897749;28;20494;-76
2020/12/19 12:06:41;;;;;;;;;;;2.10;99.90;;;;;;20907896;28;20055;-76
2020/12/19 12:16:42;;;;;;;35.37;15.93;;;2.10;99.90;;;;;;20906964;28;19990;-76
2020/12/19 12:26:43;;;;;;;31.95;15.75;;;2.20;99.90;;;;;;20867986;28;21121;-75
2020/12/19 12:36:46;;;;;;;;;;;2.30;99.90;;;;;;20868166;28;20601;-75
2020/12/19 12:46:48;;;;;;;33.38;16.23;;;2.40;99.90;;;;;;20903227;28;20416;-75
2020/12/19 12:56:49;;;;;;;32.75;15.38;;;2.50;99.90;;;;;;20832928;28;20044;-74
2020/12/19 13:06:50;;;;;;;;;;;2.50;99.90;;;;;;20820056;28;20029;-74
2020/12/19 13:16:51;;;;;;;36.17;16.98;;;2.30;99.90;;;;;;20817453;28;20288;-74
2020/12/19 13:26:52;;;;;;;;;;;2.30;99.90;;;;;;20848501;28;20071;-75
2020/12/19 13:36:53;;;;;;;46.70;18.50;;;2.20;99.90;;;;;;20815402;28;19916;-75
2020/12/19 13:46:57;;;;;;;50.38;20.70;;;2.20;99.90;;;;;;20880566;28;21008;-75
2020/12/19 13:56:58;;;;;;;51.65;19.88;;;2.10;99.90;;;;;;20897144;28;20041;-75
2020/12/19 14:06:59;;;;;;;;;;;2.20;99.90;;;;;;20879840;28;20561;-75
2020/12/19 14:17:07;;;;;;;90.30;30.23;;;2.10;99.90;;;;;;20895922;28;19939;-75
2020/12/19 14:27:07;;;;;;;60.35;23.20;;;2.20;99.90;;;;;;20834319;28;20065;-76
2020/12/19 14:37:08;;;;;;;54.03;21.17;;;2.60;99.90;;;;;;20887658;28;20029;-75
2020/12/19 14:47:09;;;;;;;;;;;2.30;99.90;;;;;;20827551;28;20040;-75
2020/12/19 14:57:10;;;;;;;43.95;18.60;;;2.30;99.90;;;;;;20844307;28;19955;-74
2020/12/19 15:07:11;;;;;;;46.72;19.85;;;2.30;99.90;;;;;;20849949;28;20545;-75
2020/12/19 15:17:11;;;;;;;46.92;18.42;;;2.30;99.90;;;;;;20829429;28;20025;-75
2020/12/19 15:27:12;;;;;;;;;;;2.30;99.90;;;;;;20857919;28;20032;-75
2020/12/19 15:37:13;;;;;;;58.80;21.90;;;2.30;99.90;;;;;;20890163;28;19921;-75
2020/12/19 15:47:14;;;;;;;45.03;19.73;;;2.30;99.90;;;;;;20872068;28;20302;-75
2020/12/19 15:57:15;;;;;;;44.28;20.00;;;2.30;99.90;;;;;;20813386;28;20599;-75
2020/12/19 16:07:15;;;;;;;;;;;2.20;99.90;;;;;;20808339;28;20029;-75
2020/12/19 16:17:17;;;;;;;48.97;18.25;;;2.20;99.90;;;;;;20840128;28;19989;-75
2020/12/19 16:27:17;;;;;;;;;;;2.30;99.90;;;;;;20824102;28;20281;-75
2020/12/19 16:37:18;;;;;;;53.85;21.50;;;2.20;99.90;;;;;;20887700;28;20454;-75
2020/12/19 16:47:19;;;;;;;;;;;2.30;99.90;;;;;;20887031;28;20040;-75
2020/12/19 16:57:20;;;;;;;54.17;19.17;;;2.30;99.90;;;;;;20886336;28;19924;-75
2020/12/19 17:07:20;;;;;;;47.88;18.63;;;2.20;99.90;;;;;;20867768;28;20350;-75
2020/12/19 17:17:21;;;;;;;49.87;19.77;;;2.80;99.90;;;;;;20872213;22;20553;-81
2020/12/19 17:27:22;;;;;;;38.80;17.23;;;2.50;99.90;;;;;;20822868;28;20345;-81
2020/12/19 17:37:23;;;;;;;40.75;18.33;;;2.30;99.90;;;;;;20817142;28;20380;-81
2020/12/19 17:47:25;;;;;;;49.78;20.88;;;2.30;99.90;;;;;;20824496;28;20041;-82
2020/12/19 17:57:29;;;;;;;51.65;20.15;;;2.30;99.90;;;;;;20823220;28;20595;-81
2020/12/19 18:07:30;;;;;;;42.40;16.83;;;2.40;99.90;;;;;;20823107;28;20033;-81
2020/12/19 18:17:31;;;;;;;;;;;2.30;99.90;;;;;;20825893;28;20071;-79
2020/12/19 18:27:32;;;;;;;67.60;25.10;;;2.20;99.90;;;;;;20823165;28;20436;-79
2020/12/19 18:37:34;;;;;;;;;;;2.20;99.90;;;;;;20823289;28;20467;-82
2020/12/19 18:47:35;;;;;;;;;;;2.30;99.90;;;;;;20818880;28;19940;-84
2020/12/19 18:57:36;;;;;;;46.75;18.83;;;2.20;99.90;;;;;;20820507;28;19924;-80
2020/12/19 19:07:36;;;;;;;;;;;2.20;99.90;;;;;;20803950;28;20561;-81
2020/12/19 19:17:40;;;;;;;42.67;18.48;;;2.10;99.90;;;;;;20804107;28;19917;-80
2020/12/19 19:27:41;;;;;;;46.13;19.50;;;2.20;99.90;;;;;;20808353;28;20090;-80
2020/12/19 19:37:41;;;;;;;;;;;2.20;99.90;;;;;;20857804;28;20052;-79
2020/12/19 19:47:42;;;;;;;35.15;17.92;;;2.20;99.90;;;;;;20823919;28;20434;-81
2020/12/19 19:57:43;;;;;;;;;;;2.30;99.90;;;;;;20821086;28;20523;-80
2020/12/19 20:07:44;;;;;;;40.50;17.10;;;2.30;99.90;;;;;;20899104;28;19916;-84
2020/12/19 20:17:44;;;;;;;41.15;19.58;;;2.40;99.90;;;;;;20850179;28;20508;-83
2020/12/19 20:27:46;;;;;;;46.50;20.33;;;2.40;99.90;;;;;;20798115;28;20091;-83
2020/12/19 20:37:50;;;;;;;43.05;18.88;;;2.40;99.90;;;;;;20801496;28;20087;-83
2020/12/19 20:47:51;;;;;;;44.42;18.70;;;2.40;99.90;;;;;;20850214;28;20047;-83
2020/12/19 20:57:52;;;;;;;;;;;2.40;99.90;;;;;;20874360;28;20030;-81
2020/12/19 21:07:52;;;;;;;35.35;17.05;;;2.40;99.90;;;;;;20891576;28;20003;-83
2020/12/19 21:17:53;;;;;;;;;;;2.40;99.90;;;;;;20842668;28;20071;-82
2020/12/19 21:27:54;;;;;;;35.22;16.17;;;2.40;99.90;;;;;;20826972;28;19917;-80
2020/12/19 21:37:55;;;;;;;;;;;2.40;99.90;;;;;;20861015;28;20037;-80
2020/12/19 21:47:56;;;;;;;33.67;15.63;;;2.40;99.90;;;;;;20895045;28;19924;-81
2020/12/19 21:57:57;;;;;;;33.20;16.13;;;2.40;99.90;;;;;;20869678;28;20861;-79
2020/12/19 22:07:58;;;;;;;29.05;14.32;;;2.40;99.90;;;;;;20862600;28;20029;-79
2020/12/19 22:17:59;;;;;;;;;;;2.30;99.90;;;;;;20876468;28;20045;-83
2020/12/19 22:28:00;;;;;;;34.17;14.43;;;2.30;99.90;;;;;;20877000;28;20789;-81
2020/12/19 22:38:01;;;;;;;;;;;2.20;99.90;;;;;;20910183;28;20025;-81
2020/12/19 22:48:02;;;;;;;26.42;14.10;;;2.20;99.90;;;;;;20863561;28;19913;-83
2020/12/19 22:58:02;;;;;;;;;;;2.20;99.90;;;;;;20826778;28;20033;-83
2020/12/19 23:08:03;;;;;;;30.43;14.63;;;2.10;99.90;;;;;;20876973;28;19913;-82
2020/12/19 23:18:04;;;;;;;;;;;2.10;99.90;;;;;;20928870;22;20975;-74
2020/12/19 23:28:04;;;;;;;43.15;17.55;;;2.00;99.90;;;;;;20886562;28;20322;-74
2020/12/19 23:38:05;;;;;;;;;;;1.90;99.90;;;;;;20789006;28;20103;-74
2020/12/19 23:48:06;;;;;;;45.10;19.60;;;1.90;99.90;;;;;;20829272;28;20373;-74
2020/12/19 23:58:07;;;;;;;;;;;1.90;99.90;;;;;;20890217;28;20036;-74
